NOAA Web Site Link Tides and Currents Home Page Transparent placeholder image

Parts of the U.S. Government are closed. However, because the information this site provides is necessary to protect life and property, it will be updated and maintained during the Federal Government shutdown. For critical weather information, please visit www.weather.gov. To learn more, see www.commerce.gov.

PORTS® Data Listing: 8545240 Philadelphia, PA

CO-OPS RAW PORTS DATA

************************      PRELIMINARY DATA      ************************** 

     THIS RAW DATA HAS NOT BEEN SUBJECT TO THE NATIONAL OCEAN SERVICE'S        
     QUALITY CONTROL OR QUALITY ASSURANCE PROCEDURES AND DOES NOT MEET         
     THE CRITERIA AND STANDARDS OF OFFICIAL NATIONAL OCEAN SERVICE             
     DATA.  IT IS RELEASED FOR LIMITED PUBLIC USE AS PRELIMINARY DATA TO       
     BE USED ONLY WITH APPROPRIATE CAUTION.                                    

************************      PRELIMINARY DATA      ************************** 


       CD   -   Calendar date
       T    -   Time
       TZ   -   Timezone
       PW   -   Predicted water level (feet above MLLW)
       OW   -   Observed water level (feet above MLLW)
       WS   -   Wind speed (knots)
       WD   -   Wind direction (degrees true)
       WG   -   Wind gust (knots)
       AT   -   Air temperature (degrees farenheit)
       WT   -   Water temperature (degrees farenheit)
       AP   -   Air pressure (millibars)
       SA   -   Salinty (PSU - Practical Salinity Units)
       SG   -   Specific gravity
       RH   -   Relative humidity
       AG   -   Air gap (feet)
       VI   -   Visibility (nautical miles)

       ** NOTE **
       A variable that has its data fields filled with "9"s, indicates that
       data was not collected for that sample period.
       **********


STATION NAME: Philadelphia (8545240)
****************************************************************************************************
    CD       T    TZ    PW     OW    WS   WD   WG    AT    WT    AP    SA    SG     RH    AG   VI
****************************************************************************************************
2019/01/22 06:48 EST    0.88  -0.60 -999 -999 -999  14.5  33.6 1037.5 -9.9 -9.999 -99.9 -99.99 -9.99
2019/01/22 06:54 EST    0.77  -0.70 -999 -999 -999  14.4  33.6 1037.7 -9.9 -9.999 -99.9 -99.99 -9.99
2019/01/22 07:00 EST    0.65  -0.80 -999 -999 -999  14.7  33.6 1037.8 -9.9 -9.999 -99.9 -99.99 -9.99
2019/01/22 07:06 EST    0.54  -0.91 -999 -999 -999  14.9  33.6 1037.9 -9.9 -9.999 -99.9 -99.99 -9.99
2019/01/22 07:12 EST    0.42  -1.02 -999 -999 -999  15.1  33.6 1038.0 -9.9 -9.999 -99.9 -99.99 -9.99
2019/01/22 07:18 EST    0.31  -1.13 -999 -999 -999  14.7  33.4 1038.0 -9.9 -9.999 -99.9 -99.99 -9.99
2019/01/22 07:24 EST    0.20  -1.22 -999 -999 -999  14.9  33.4 1038.0 -9.9 -9.999 -99.9 -99.99 -9.99
2019/01/22 07:30 EST    0.09  -1.32 -999 -999 -999  15.1  33.4 1038.2 -9.9 -9.999 -99.9 -99.99 -9.99
2019/01/22 07:36 EST   -0.02  -1.43 -999 -999 -999  15.3  33.4 1038.4 -9.9 -9.999 -99.9 -99.99 -9.99
2019/01/22 07:42 EST   -0.13  -1.52 -999 -999 -999  15.4  33.4 1038.6 -9.9 -9.999 -99.9 -99.99 -9.99
2019/01/22 07:48 EST   -0.23  -1.61 -999 -999 -999  15.6  33.6 1038.7 -9.9 -9.999 -99.9 -99.99 -9.99
2019/01/22 07:54 EST   -0.33  -1.70 -999 -999 -999  16.0  33.4 1038.8 -9.9 -9.999 -99.9 -99.99 -9.99
2019/01/22 08:00 EST   -0.43  -1.79 -999 -999 -999  16.7  33.4 1039.1 -9.9 -9.999 -99.9 -99.99 -9.99
2019/01/22 08:06 EST   -0.51  -1.87 -999 -999 -999  16.5  33.4 1039.5 -9.9 -9.999 -99.9 -99.99 -9.99
2019/01/22 08:12 EST   -0.60  -1.95 -999 -999 -999  16.2  33.4 1039.6 -9.9 -9.999 -99.9 -99.99 -9.99
2019/01/22 08:18 EST   -0.67  -2.05 -999 -999 -999  15.6  33.4 1039.6 -9.9 -9.999 -99.9 -99.99 -9.99
2019/01/22 08:24 EST   -0.73  -2.13 -999 -999 -999  15.6  33.4 1039.6 -9.9 -9.999 -99.9 -99.99 -9.99
2019/01/22 08:30 EST   -0.78  -2.21 -999 -999 -999  15.8  33.4 1039.6 -9.9 -9.999 -99.9 -99.99 -9.99
2019/01/22 08:36 EST   -0.83  -2.29 -999 -999 -999  16.3  33.4 1039.7 -9.9 -9.999 -99.9 -99.99 -9.99
2019/01/22 08:42 EST   -0.85  -2.36 -999 -999 -999  16.9  33.4 1039.7 -9.9 -9.999 -99.9 -99.99 -9.99
2019/01/22 08:48 EST   -0.87  -2.43 -999 -999 -999  16.7  33.4 1039.7 -9.9 -9.999 -99.9 -99.99 -9.99
2019/01/22 08:54 EST   -0.86  -2.49 -999 -999 -999  18.0  33.4 1039.7 -9.9 -9.999 -99.9 -99.99 -9.99
2019/01/22 09:00 EST   -0.85  -2.54 -999 -999 -999  18.3  33.4 1039.6 -9.9 -9.999 -99.9 -99.99 -9.99
2019/01/22 09:06 EST   -0.81  -2.58 -999 -999 -999  19.6  33.4 1039.6 -9.9 -9.999 -99.9 -99.99 -9.99
2019/01/22 09:12 EST   -0.76  -2.60 -999 -999 -999  19.0  33.4 1039.6 -9.9 -9.999 -99.9 -99.99 -9.99
2019/01/22 09:18 EST   -0.69  -2.57 -999 -999 -999  18.5  33.4 1039.5 -9.9 -9.999 -99.9 -99.99 -9.99
2019/01/22 09:24 EST   -0.60  -2.49 -999 -999 -999  19.6  33.4 1039.4 -9.9 -9.999 -99.9 -99.99 -9.99
2019/01/22 09:30 EST   -0.50  -2.34 -999 -999 -999  19.4  33.4 1039.6 -9.9 -9.999 -99.9 -99.99 -9.99
2019/01/22 09:36 EST   -0.38  -2.10 -999 -999 -999  19.6  33.4 1039.6 -9.9 -9.999 -99.9 -99.99 -9.99
2019/01/22 09:42 EST   -0.24  -1.81 -999 -999 -999  19.4  33.4 1039.6 -9.9 -9.999 -99.9 -99.99 -9.99
2019/01/22 09:48 EST   -0.09  -1.55 -999 -999 -999  20.7  33.4 1039.7 -9.9 -9.999 -99.9 -99.99 -9.99
2019/01/22 09:54 EST    0.08  -1.33 -999 -999 -999  21.0  33.4 1039.6 -9.9 -9.999 -99.9 -99.99 -9.99
2019/01/22 10:00 EST    0.26  -1.10 -999 -999 -999  20.5  33.4 1039.5 -9.9 -9.999 -99.9 -99.99 -9.99
2019/01/22 10:06 EST    0.46  -0.88 -999 -999 -999  21.2  33.4 1039.5 -9.9 -9.999 -99.9 -99.99 -9.99
2019/01/22 10:12 EST    0.66  -0.67 -999 -999 -999  22.3  33.4 1039.5 -9.9 -9.999 -99.9 -99.99 -9.99
2019/01/22 10:18 EST    0.87  -0.44 -999 -999 -999  21.4  33.4 1039.6 -9.9 -9.999 -99.9 -99.99 -9.99
2019/01/22 10:24 EST    1.09  -0.21 -999 -999 -999  21.7  33.4 1039.7 -9.9 -9.999 -99.9 -99.99 -9.99
2019/01/22 10:30 EST    1.32   0.01 -999 -999 -999  21.9  33.4 1039.8 -9.9 -9.999 -99.9 -99.99 -9.99
2019/01/22 10:36 EST    1.55   0.20 -999 -999 -999  22.8  33.4 1039.9 -9.9 -9.999 -99.9 -99.99 -9.99
2019/01/22 10:42 EST    1.78   0.39 -999 -999 -999  23.4  33.6 1039.8 -9.9 -9.999 -99.9 -99.99 -9.99
2019/01/22 10:48 EST    2.01   0.59 -999 -999 -999  23.2  33.6 1039.9 -9.9 -9.999 -99.9 -99.99 -9.99
2019/01/22 10:54 EST    2.24   0.80 -999 -999 -999  24.3  33.6 1040.0 -9.9 -9.999 -99.9 -99.99 -9.99
2019/01/22 11:00 EST    2.47   0.99 -999 -999 -999  24.8  33.6 1040.0 -9.9 -9.999 -99.9 -99.99 -9.99
2019/01/22 11:06 EST    2.69   1.18 -999 -999 -999  25.5  33.6 1039.9 -9.9 -9.999 -99.9 -99.99 -9.99
2019/01/22 11:12 EST    2.91   1.37 -999 -999 -999  25.0  33.6 1039.6 -9.9 -9.999 -99.9 -99.99 -9.99
2019/01/22 11:18 EST    3.12   1.49 -999 -999 -999  23.4  33.6 1039.5 -9.9 -9.999 -99.9 -99.99 -9.99
2019/01/22 11:24 EST    3.33   1.71 -999 -999 -999  24.1  33.6 1039.5 -9.9 -9.999 -99.9 -99.99 -9.99
2019/01/22 11:30 EST    3.53   1.87 -999 -999 -999  24.8  33.6 1039.6 -9.9 -9.999 -99.9 -99.99 -9.99
2019/01/22 11:36 EST    3.72   2.05 -999 -999 -999  25.3  33.6 1039.6 -9.9 -9.999 -99.9 -99.99 -9.99
2019/01/22 11:42 EST    3.91   2.23 -999 -999 -999  26.4  33.6 1039.5 -9.9 -9.999 -99.9 -99.99 -9.99
2019/01/22 11:48 EST    4.08   2.40 -999 -999 -999  27.3  33.6 1039.3 -9.9 -9.999 -99.9 -99.99 -9.99
2019/01/22 11:54 EST    4.25   2.59 -999 -999 -999  28.0  33.6 1039.2 -9.9 -9.999 -99.9 -99.99 -9.99
2019/01/22 12:00 EST    4.41   2.75 -999 -999 -999  27.5  33.6 1039.1 -9.9 -9.999 -99.9 -99.99 -9.99
2019/01/22 12:06 EST    4.57   2.93 -999 -999 -999  26.8  33.6 1038.8 -9.9 -9.999 -99.9 -99.99 -9.99
2019/01/22 12:12 EST    4.71   3.10 -999 -999 -999  26.4  33.6 1038.9 -9.9 -9.999 -99.9 -99.99 -9.99
2019/01/22 12:18 EST    4.85   3.29 -999 -999 -999  26.8  33.6 1038.8 -9.9 -9.999 -99.9 -99.99 -9.99
2019/01/22 12:24 EST    4.99   3.45 -999 -999 -999  27.7  33.6 1038.7 -9.9 -9.999 -99.9 -99.99 -9.99
2019/01/22 12:30 EST    5.12   3.61 -999 -999 -999  27.7  33.6 1038.7 -9.9 -9.999 -99.9 -99.99 -9.99
2019/01/22 12:36 EST    5.25   3.76 -999 -999 -999  27.9  33.6 1038.4 -9.9 -9.999 -99.9 -99.99 -9.99
2019/01/22 12:42 EST    5.37   3.93 -999 -999 -999  29.7  33.6 1038.3 -9.9 -9.999 -99.9 -99.99 -9.99
2019/01/22 12:48 EST    5.48   4.10 -999 -999 -999  28.2  33.6 1038.1 -9.9 -9.999 -99.9 -99.99 -9.99
2019/01/22 12:54 EST    5.59   4.23 -999 -999 -999  28.2  33.6 1038.0 -9.9 -9.999 -99.9 -99.99 -9.99
2019/01/22 13:00 EST    5.70   4.37 -999 -999 -999  28.0  33.6 1037.9 -9.9 -9.999 -99.9 -99.99 -9.99
2019/01/22 13:06 EST    5.80   4.51 -999 -999 -999  28.6  33.6 1037.8 -9.9 -9.999 -99.9 -99.99 -9.99
2019/01/22 13:12 EST    5.90   4.64 -999 -999 -999  27.9  33.6 1037.9 -9.9 -9.999 -99.9 -99.99 -9.99
2019/01/22 13:18 EST    5.99   4.77 -999 -999 -999  28.4  33.6 1037.8 -9.9 -9.999 -99.9 -99.99 -9.99
2019/01/22 13:24 EST    6.08   4.92 -999 -999 -999  28.6  33.6 1037.7 -9.9 -9.999 -99.9 -99.99 -9.99
2019/01/22 13:30 EST    6.16   5.08 -999 -999 -999  29.1  33.6 1037.7 -9.9 -9.999 -99.9 -99.99 -9.99
2019/01/22 13:36 EST    6.24   5.23 -999 -999 -999  29.3  33.6 1037.6 -9.9 -9.999 -99.9 -99.99 -9.99
2019/01/22 13:42 EST    6.31   5.36 -999 -999 -999  28.6  33.6 1037.4 -9.9 -9.999 -99.9 -99.99 -9.99
2019/01/22 13:48 EST    6.37   5.49 -999 -999 -999  28.6  33.6 1037.3 -9.9 -9.999 -99.9 -99.99 -9.99
2019/01/22 13:54 EST    6.42   5.60 -999 -999 -999  29.1  33.6 1037.2 -9.9 -9.999 -99.9 -99.99 -9.99
2019/01/22 14:00 EST    6.47   5.70 -999 -999 -999  29.5  33.6 1037.2 -9.9 -9.999 -99.9 -99.99 -9.99
2019/01/22 14:06 EST    6.50   5.81 -999 -999 -999  29.5  33.6 1037.4 -9.9 -9.999 -99.9 -99.99 -9.99
2019/01/22 14:12 EST    6.53   5.88 -999 -999 -999  29.8  33.6 1037.4 -9.9 -9.999 -99.9 -99.99 -9.99
2019/01/22 14:18 EST    6.55   5.93 -999 -999 -999  29.8  33.6 1037.3 -9.9 -9.999 -99.9 -99.99 -9.99
2019/01/22 14:24 EST    6.55   5.97 -999 -999 -999  29.8  33.6 1037.3 -9.9 -9.999 -99.9 -99.99 -9.99
2019/01/22 14:30 EST    6.55   6.01 -999 -999 -999  30.0  33.6 1037.2 -9.9 -9.999 -99.9 -99.99 -9.99
2019/01/22 14:36 EST    6.53   6.06 -999 -999 -999  29.8  33.6 1037.1 -9.9 -9.999 -99.9 -99.99 -9.99
2019/01/22 14:42 EST    6.51   6.08 -999 -999 -999  30.2  33.6 1037.1 -9.9 -9.999 -99.9 -99.99 -9.99
2019/01/22 14:48 EST    6.48   6.07 -999 -999 -999  30.4  33.6 1037.2 -9.9 -9.999 -99.9 -99.99 -9.99
2019/01/22 14:54 EST    6.43   6.08 -999 -999 -999  30.4  33.6 1037.2 -9.9 -9.999 -99.9 -99.99 -9.99
2019/01/22 15:00 EST    6.38   6.07 -999 -999 -999  30.0  33.6 1037.1 -9.9 -9.999 -99.9 -99.99 -9.99
2019/01/22 15:06 EST    6.32   6.04 -999 -999 -999  30.0  33.6 1037.0 -9.9 -9.999 -99.9 -99.99 -9.99
2019/01/22 15:12 EST    6.25   5.97 -999 -999 -999  30.0  33.6 1037.0 -9.9 -9.999 -99.9 -99.99 -9.99
2019/01/22 15:18 EST    6.18   5.91 -999 -999 -999  30.6  33.6 1036.9 -9.9 -9.999 -99.9 -99.99 -9.99
2019/01/22 15:24 EST    6.10   5.83 -999 -999 -999  31.1  33.6 1036.9 -9.9 -9.999 -99.9 -99.99 -9.99
2019/01/22 15:30 EST    6.01   5.73 -999 -999 -999  31.1  33.6 1036.8 -9.9 -9.999 -99.9 -99.99 -9.99
2019/01/22 15:36 EST    5.92   5.63 -999 -999 -999  30.6  33.6 1036.6 -9.9 -9.999 -99.9 -99.99 -9.99
2019/01/22 15:42 EST    5.82   5.51 -999 -999 -999  30.6  33.6 1036.6 -9.9 -9.999 -99.9 -99.99 -9.99
2019/01/22 15:48 EST    5.72   5.37 -999 -999 -999  31.1  33.6 1036.6 -9.9 -9.999 -99.9 -99.99 -9.99
2019/01/22 15:54 EST    5.62   5.24 -999 -999 -999  30.9  33.6 1036.6 -9.9 -9.999 -99.9 -99.99 -9.99
2019/01/22 16:00 EST    5.52   5.11 -999 -999 -999  31.1  33.6 1036.7 -9.9 -9.999 -99.9 -99.99 -9.99
2019/01/22 16:06 EST    5.41   4.99 -999 -999 -999  30.9  33.6 1036.5 -9.9 -9.999 -99.9 -99.99 -9.99
2019/01/22 16:12 EST    5.30   4.87 -999 -999 -999  30.7  33.6 1036.7 -9.9 -9.999 -99.9 -99.99 -9.99
2019/01/22 16:18 EST    5.20   4.73 -999 -999 -999  30.4  33.6 1036.7 -9.9 -9.999 -99.9 -99.99 -9.99
2019/01/22 16:24 EST    5.09   4.61 -999 -999 -999  30.0  33.6 1036.8 -9.9 -9.999 -99.9 -99.99 -9.99
2019/01/22 16:30 EST    4.98   4.49 -999 -999 -999  29.8  33.6 1036.8 -9.9 -9.999 -99.9 -99.99 -9.99
2019/01/22 16:36 EST    4.88   4.37 -999 -999 -999  29.8  33.6 1036.7 -9.9 -9.999 -99.9 -99.99 -9.99
2019/01/22 16:42 EST    4.77   4.25 -999 -999 -999  29.8  33.6 1036.9 -9.9 -9.999 -99.9 -99.99 -9.99
2019/01/22 16:48 EST    4.66   4.13 -999 -999 -999  29.7  33.6 1036.9 -9.9 -9.999 -99.9 -99.99 -9.99
2019/01/22 16:54 EST    4.56   4.01 -999 -999 -999  29.3  33.6 1036.7 -9.9 -9.999 -99.9 -99.99 -9.99
2019/01/22 17:00 EST    4.45   3.88 -999 -999 -999  29.1  33.6 1036.5 -9.9 -9.999 -99.9 -99.99 -9.99
2019/01/22 17:06 EST    4.35   3.77 -999 -999 -999  29.1  33.6 1036.2 -9.9 -9.999 -99.9 -99.99 -9.99
2019/01/22 17:12 EST    4.24   3.65 -999 -999 -999  28.9  33.6 1036.3 -9.9 -9.999 -99.9 -99.99 -9.99
2019/01/22 17:18 EST    4.13   3.54 -999 -999 -999  28.9  33.6 1036.5 -9.9 -9.999 -99.9 -99.99 -9.99
2019/01/22 17:24 EST    4.03   3.43 -999 -999 -999  28.9  33.6 1036.6 -9.9 -9.999 -99.9 -99.99 -9.99
2019/01/22 17:30 EST    3.92   3.31 -999 -999 -999  28.8  33.6 1036.6 -9.9 -9.999 -99.9 -99.99 -9.99
2019/01/22 17:36 EST    3.81   3.20 -999 -999 -999  28.4  33.6 1036.5 -9.9 -9.999 -99.9 -99.99 -9.99
2019/01/22 17:42 EST    3.70   3.09 -999 -999 -999  28.8  33.6 1036.4 -9.9 -9.999 -99.9 -99.99 -9.99
2019/01/22 17:48 EST    3.59   2.98 -999 -999 -999  28.4  33.6 1036.4 -9.9 -9.999 -99.9 -99.99 -9.99
2019/01/22 17:54 EST    3.48   2.86 -999 -999 -999  28.2  33.6 1036.4 -9.9 -9.999 -99.9 -99.99 -9.99
2019/01/22 18:00 EST    3.36   2.75 -999 -999 -999  28.4  33.6 1036.3 -9.9 -9.999 -99.9 -99.99 -9.99
2019/01/22 18:06 EST    3.25   2.64 -999 -999 -999  28.4  33.6 1036.4 -9.9 -9.999 -99.9 -99.99 -9.99
2019/01/22 18:12 EST    3.13   2.53 -999 -999 -999  28.4  33.6 1036.3 -9.9 -9.999 -99.9 -99.99 -9.99
2019/01/22 18:18 EST    3.01   2.42 -999 -999 -999  28.4  33.6 1036.6 -9.9 -9.999 -99.9 -99.99 -9.99
2019/01/22 18:24 EST    2.89   2.32 -999 -999 -999  28.8  33.6 1036.7 -9.9 -9.999 -99.9 -99.99 -9.99
2019/01/22 18:30 EST    2.77   2.22 -999 -999 -999  28.8  33.6 1036.7 -9.9 -9.999 -99.9 -99.99 -9.99
2019/01/22 18:36 EST    2.65   2.11 -999 -999 -999  28.8  33.6 1036.7 -9.9 -9.999 -99.9 -99.99 -9.99
2019/01/22 18:42 EST    2.52   2.00 -999 -999 -999  28.8  33.6 1036.7 -9.9 -9.999 -99.9 -99.99 -9.99
2019/01/22 18:48 EST    2.40   1.88 -999 -999 -999  28.8  33.6 1036.6 -9.9 -9.999 -99.9 -99.99 -9.99
2019/01/22 18:54 EST    2.27   1.75 -999 -999 -999  28.8  33.6 1036.5 -9.9 -9.999 -99.9 -99.99 -9.99
2019/01/22 19:00 EST    2.13   1.63 -999 -999 -999  28.6  33.6 1036.4 -9.9 -9.999 -99.9 -99.99 -9.99
2019/01/22 19:06 EST    2.00   1.52 -999 -999 -999  28.4  33.6 1036.5 -9.9 -9.999 -99.9 -99.99 -9.99
2019/01/22 19:12 EST    1.86   1.41 -999 -999 -999  28.4  33.4 1036.7 -9.9 -9.999 -99.9 -99.99 -9.99
2019/01/22 19:18 EST    1.73   1.29 -999 -999 -999  28.4  33.4 1036.8 -9.9 -9.999 -99.9 -99.99 -9.99
2019/01/22 19:24 EST    1.59   1.18 -999 -999 -999  28.6  33.4 1036.7 -9.9 -9.999 -99.9 -99.99 -9.99
2019/01/22 19:30 EST    1.44   1.06 -999 -999 -999  28.6  33.4 1036.5 -9.9 -9.999 -99.9 -99.99 -9.99
2019/01/22 19:36 EST    1.30   0.95 -999 -999 -999  28.4  33.4 1036.3 -9.9 -9.999 -99.9 -99.99 -9.99
2019/01/22 19:42 EST    1.15   0.85 -999 -999 -999  28.4  33.4 1036.1 -9.9 -9.999 -99.9 -99.99 -9.99
2019/01/22 19:48 EST    1.01   0.73 -999 -999 -999  28.2  33.4 1036.2 -9.9 -9.999 -99.9 -99.99 -9.99
2019/01/22 19:54 EST    0.86   0.62 -999 -999 -999  28.2  33.4 1036.2 -9.9 -9.999 -99.9 -99.99 -9.99
2019/01/22 20:00 EST    0.71   0.52 -999 -999 -999  28.2  33.4 1036.2 -9.9 -9.999 -99.9 -99.99 -9.99
2019/01/22 20:06 EST    0.56   0.41 -999 -999 -999  28.2  33.4 1036.3 -9.9 -9.999 -99.9 -99.99 -9.99
2019/01/22 20:12 EST    0.42   0.30 -999 -999 -999  28.2  33.4 1036.2 -9.9 -9.999 -99.9 -99.99 -9.99
2019/01/22 20:18 EST    0.27   0.19 -999 -999 -999  28.2  33.4 1036.0 -9.9 -9.999 -99.9 -99.99 -9.99
2019/01/22 20:24 EST    0.13   0.08 -999 -999 -999  28.2  33.4 1036.1 -9.9 -9.999 -99.9 -99.99 -9.99
2019/01/22 20:30 EST   -0.00  -0.02 -999 -999 -999  28.2  33.4 1035.9 -9.9 -9.999 -99.9 -99.99 -9.99
2019/01/22 20:36 EST   -0.14  -0.12 -999 -999 -999  28.2  33.4 1035.9 -9.9 -9.999 -99.9 -99.99 -9.99
2019/01/22 20:42 EST   -0.26  -0.22 -999 -999 -999  28.2  33.4 1035.9 -9.9 -9.999 -99.9 -99.99 -9.99
2019/01/22 20:48 EST   -0.37  -0.32 -999 -999 -999  28.4  33.4 1035.7 -9.9 -9.999 -99.9 -99.99 -9.99
2019/01/22 20:54 EST   -0.48  -0.41 -999 -999 -999  28.4  33.4 1035.7 -9.9 -9.999 -99.9 -99.99 -9.99
2019/01/22 21:00 EST   -0.57  -0.50 -999 -999 -999  28.4  33.4 1035.6 -9.9 -9.999 -99.9 -99.99 -9.99
2019/01/22 21:06 EST   -0.66  -0.59 -999 -999 -999  28.4  33.4 1035.6 -9.9 -9.999 -99.9 -99.99 -9.99
2019/01/22 21:12 EST   -0.73  -0.69 -999 -999 -999  28.2  33.4 1035.6 -9.9 -9.999 -99.9 -99.99 -9.99
2019/01/22 21:18 EST   -0.78  -0.78 -999 -999 -999  28.2  33.4 1035.4 -9.9 -9.999 -99.9 -99.99 -9.99
2019/01/22 21:24 EST   -0.82  -0.86 -999 -999 -999  28.2  33.4 1035.3 -9.9 -9.999 -99.9 -99.99 -9.99
2019/01/22 21:30 EST   -0.84  -0.95 -999 -999 -999  28.2  33.4 1035.3 -9.9 -9.999 -99.9 -99.99 -9.99
2019/01/22 21:36 EST   -0.85  -1.03 -999 -999 -999  28.0  33.4 1035.4 -9.9 -9.999 -99.9 -99.99 -9.99
2019/01/22 21:42 EST   -0.83  -1.10 -999 -999 -999  28.0  33.4 1035.5 -9.9 -9.999 -99.9 -99.99 -9.99
2019/01/22 21:48 EST   -0.80  -1.16 -999 -999 -999  28.0  33.4 1035.4 -9.9 -9.999 -99.9 -99.99 -9.99
2019/01/22 21:54 EST   -0.76  -1.21 -999 -999 -999  28.0  33.4 1035.4 -9.9 -9.999 -99.9 -99.99 -9.99
2019/01/22 22:00 EST   -0.69  -1.26 -999 -999 -999  28.0  33.4 1035.4 -9.9 -9.999 -99.9 -99.99 -9.99
2019/01/22 22:06 EST   -0.61  -1.26 -999 -999 -999  28.0  33.4 1035.4 -9.9 -9.999 -99.9 -99.99 -9.99
2019/01/22 22:12 EST   -0.51  -1.24 -999 -999 -999  28.0  33.4 1035.4 -9.9 -9.999 -99.9 -99.99 -9.99
2019/01/22 22:18 EST   -0.39  -1.14 -999 -999 -999  27.9  33.4 1035.5 -9.9 -9.999 -99.9 -99.99 -9.99
2019/01/22 22:24 EST   -0.26  -0.96 -999 -999 -999  28.0  33.4 1035.6 -9.9 -9.999 -99.9 -99.99 -9.99
2019/01/22 22:30 EST   -0.12  -0.71 -999 -999 -999  28.0  33.4 1035.7 -9.9 -9.999 -99.9 -99.99 -9.99
2019/01/22 22:36 EST    0.04  -0.41 -999 -999 -999  28.2  33.4 1035.8 -9.9 -9.999 -99.9 -99.99 -9.99
2019/01/22 22:42 EST    0.21  -0.10 -999 -999 -999  28.2  33.4 1035.8 -9.9 -9.999 -99.9 -99.99 -9.99
2019/01/22 22:48 EST    0.38   0.21 -999 -999 -999  28.2  33.4 1035.7 -9.9 -9.999 -99.9 -99.99 -9.99
2019/01/22 22:54 EST    0.57   0.48 -999 -999 -999  28.2  33.4 1035.4 -9.9 -9.999 -99.9 -99.99 -9.99
2019/01/22 23:00 EST    0.75   0.75 -999 -999 -999  28.0  33.4 1035.3 -9.9 -9.999 -99.9 -99.99 -9.99
2019/01/22 23:06 EST    0.95   1.00 -999 -999 -999  28.0  33.4 1035.2 -9.9 -9.999 -99.9 -99.99 -9.99
2019/01/22 23:12 EST    1.14   1.24 -999 -999 -999  27.9  33.4 1035.0 -9.9 -9.999 -99.9 -99.99 -9.99
2019/01/22 23:18 EST    1.34   1.46 -999 -999 -999  27.9  33.4 1035.1 -9.9 -9.999 -99.9 -99.99 -9.99
2019/01/22 23:24 EST    1.54   1.68 -999 -999 -999  27.9  33.4 1035.0 -9.9 -9.999 -99.9 -99.99 -9.99
2019/01/22 23:30 EST    1.73   1.88 -999 -999 -999  27.7  33.4 1035.0 -9.9 -9.999 -99.9 -99.99 -9.99
2019/01/22 23:36 EST    1.92   2.10 -999 -999 -999  27.9  33.4 1034.8 -9.9 -9.999 -99.9 -99.99 -9.99
2019/01/22 23:42 EST    2.11   2.30 -999 -999 -999  27.7  33.4 1034.7 -9.9 -9.999 -99.9 -99.99 -9.99
2019/01/22 23:48 EST    2.30   2.48 -999 -999 -999  27.9  33.4 1034.5 -9.9 -9.999 -99.9 -99.99 -9.99
2019/01/22 23:54 EST    2.47   2.66 -999 -999 -999  27.9  33.4 1034.4 -9.9 -9.999 -99.9 -99.99 -9.99
2019/01/23 00:00 EST    2.65   2.83 -999 -999 -999  27.9  33.4 1034.3 -9.9 -9.999 -99.9 -99.99 -9.99
2019/01/23 00:06 EST    2.82   2.98 -999 -999 -999  28.0  33.4 1034.0 -9.9 -9.999 -99.9 -99.99 -9.99
2019/01/23 00:12 EST    2.98   3.15 -999 -999 -999  28.0  33.4 1034.0 -9.9 -9.999 -99.9 -99.99 -9.99
2019/01/23 00:18 EST    3.14   3.30 -999 -999 -999  28.0  33.4 1034.1 -9.9 -9.999 -99.9 -99.99 -9.99
2019/01/23 00:24 EST    3.29   3.45 -999 -999 -999  28.0  33.4 1033.8 -9.9 -9.999 -99.9 -99.99 -9.99
2019/01/23 00:30 EST    3.43   3.61 -999 -999 -999  27.9  33.4 1033.8 -9.9 -9.999 -99.9 -99.99 -9.99
2019/01/23 00:36 EST    3.57   3.74 -999 -999 -999  27.9  33.4 1033.9 -9.9 -9.999 -99.9 -99.99 -9.99
2019/01/23 00:42 EST    3.71 -99.99 -999 -999 -999 -99.9 -99.9 -999.9 -9.9 -9.999 -99.9 -99.99 -9.99
2019/01/23 00:48 EST    3.84 -99.99 -999 -999 -999 -99.9 -99.9 -999.9 -9.9 -9.999 -99.9 -99.99 -9.99
2019/01/23 00:54 EST    3.97 -99.99 -999 -999 -999 -99.9 -99.9 -999.9 -9.9 -9.999 -99.9 -99.99 -9.99
2019/01/23 01:00 EST    4.10 -99.99 -999 -999 -999 -99.9 -99.9 -999.9 -9.9 -9.999 -99.9 -99.99 -9.99
2019/01/23 01:06 EST    4.22 -99.99 -999 -999 -999 -99.9 -99.9 -999.9 -9.9 -9.999 -99.9 -99.99 -9.99
2019/01/23 01:12 EST    4.34 -99.99 -999 -999 -999 -99.9 -99.9 -999.9 -9.9 -9.999 -99.9 -99.99 -9.99
2019/01/23 01:18 EST    4.45 -99.99 -999 -999 -999 -99.9 -99.9 -999.9 -9.9 -9.999 -99.9 -99.99 -9.99
2019/01/23 01:24 EST    4.57 -99.99 -999 -999 -999 -99.9 -99.9 -999.9 -9.9 -9.999 -99.9 -99.99 -9.99
2019/01/23 01:30 EST    4.67 -99.99 -999 -999 -999 -99.9 -99.9 -999.9 -9.9 -9.999 -99.9 -99.99 -9.99
2019/01/23 01:36 EST    4.78 -99.99 -999 -999 -999 -99.9 -99.9 -999.9 -9.9 -9.999 -99.9 -99.99 -9.99
2019/01/23 01:42 EST    4.88 -99.99 -999 -999 -999 -99.9 -99.9 -999.9 -9.9 -9.999 -99.9 -99.99 -9.99
2019/01/23 01:48 EST    4.98 -99.99 -999 -999 -999 -99.9 -99.9 -999.9 -9.9 -9.999 -99.9 -99.99 -9.99
2019/01/23 01:54 EST    5.07 -99.99 -999 -999 -999 -99.9 -99.9 -999.9 -9.9 -9.999 -99.9 -99.99 -9.99
2019/01/23 02:00 EST    5.16 -99.99 -999 -999 -999 -99.9 -99.9 -999.9 -9.9 -9.999 -99.9 -99.99 -9.99
2019/01/23 02:06 EST    5.24 -99.99 -999 -999 -999 -99.9 -99.9 -999.9 -9.9 -9.999 -99.9 -99.99 -9.99
2019/01/23 02:12 EST    5.31 -99.99 -999 -999 -999 -99.9 -99.9 -999.9 -9.9 -9.999 -99.9 -99.99 -9.99
2019/01/23 02:18 EST    5.38 -99.99 -999 -999 -999 -99.9 -99.9 -999.9 -9.9 -9.999 -99.9 -99.99 -9.99
2019/01/23 02:24 EST    5.43 -99.99 -999 -999 -999 -99.9 -99.9 -999.9 -9.9 -9.999 -99.9 -99.99 -9.99
2019/01/23 02:30 EST    5.48 -99.99 -999 -999 -999 -99.9 -99.9 -999.9 -9.9 -9.999 -99.9 -99.99 -9.99
2019/01/23 02:36 EST    5.52 -99.99 -999 -999 -999 -99.9 -99.9 -999.9 -9.9 -9.999 -99.9 -99.99 -9.99
2019/01/23 02:42 EST    5.55 -99.99 -999 -999 -999 -99.9 -99.9 -999.9 -9.9 -9.999 -99.9 -99.99 -9.99
2019/01/23 02:48 EST    5.57 -99.99 -999 -999 -999 -99.9 -99.9 -999.9 -9.9 -9.999 -99.9 -99.99 -9.99
2019/01/23 02:54 EST    5.58 -99.99 -999 -999 -999 -99.9 -99.9 -999.9 -9.9 -9.999 -99.9 -99.99 -9.99
2019/01/23 03:00 EST    5.57 -99.99 -999 -999 -999 -99.9 -99.9 -999.9 -9.9 -9.999 -99.9 -99.99 -9.99
2019/01/23 03:06 EST    5.56 -99.99 -999 -999 -999 -99.9 -99.9 -999.9 -9.9 -9.999 -99.9 -99.99 -9.99
2019/01/23 03:12 EST    5.54 -99.99 -999 -999 -999 -99.9 -99.9 -999.9 -9.9 -9.999 -99.9 -99.99 -9.99
2019/01/23 03:18 EST    5.50 -99.99 -999 -999 -999 -99.9 -99.9 -999.9 -9.9 -9.999 -99.9 -99.99 -9.99
2019/01/23 03:24 EST    5.46 -99.99 -999 -999 -999 -99.9 -99.9 -999.9 -9.9 -9.999 -99.9 -99.99 -9.99
2019/01/23 03:30 EST    5.41 -99.99 -999 -999 -999 -99.9 -99.9 -999.9 -9.9 -9.999 -99.9 -99.99 -9.99
2019/01/23 03:36 EST    5.35 -99.99 -999 -999 -999 -99.9 -99.9 -999.9 -9.9 -9.999 -99.9 -99.99 -9.99
2019/01/23 03:42 EST    5.28 -99.99 -999 -999 -999 -99.9 -99.9 -999.9 -9.9 -9.999 -99.9 -99.99 -9.99
2019/01/23 03:48 EST    5.20 -99.99 -999 -999 -999 -99.9 -99.9 -999.9 -9.9 -9.999 -99.9 -99.99 -9.99
2019/01/23 03:54 EST    5.12 -99.99 -999 -999 -999 -99.9 -99.9 -999.9 -9.9 -9.999 -99.9 -99.99 -9.99
2019/01/23 04:00 EST    5.03 -99.99 -999 -999 -999 -99.9 -99.9 -999.9 -9.9 -9.999 -99.9 -99.99 -9.99
2019/01/23 04:06 EST    4.94 -99.99 -999 -999 -999 -99.9 -99.9 -999.9 -9.9 -9.999 -99.9 -99.99 -9.99
2019/01/23 04:12 EST    4.84 -99.99 -999 -999 -999 -99.9 -99.9 -999.9 -9.9 -9.999 -99.9 -99.99 -9.99
2019/01/23 04:18 EST    4.74 -99.99 -999 -999 -999 -99.9 -99.9 -999.9 -9.9 -9.999 -99.9 -99.99 -9.99
2019/01/23 04:24 EST    4.63 -99.99 -999 -999 -999 -99.9 -99.9 -999.9 -9.9 -9.999 -99.9 -99.99 -9.99
2019/01/23 04:30 EST    4.53 -99.99 -999 -999 -999 -99.9 -99.9 -999.9 -9.9 -9.999 -99.9 -99.99 -9.99
2019/01/23 04:36 EST    4.42 -99.99 -999 -999 -999 -99.9 -99.9 -999.9 -9.9 -9.999 -99.9 -99.99 -9.99
2019/01/23 04:42 EST    4.31 -99.99 -999 -999 -999 -99.9 -99.9 -999.9 -9.9 -9.999 -99.9 -99.99 -9.99
2019/01/23 04:48 EST    4.20 -99.99 -999 -999 -999 -99.9 -99.9 -999.9 -9.9 -9.999 -99.9 -99.99 -9.99
2019/01/23 04:54 EST    4.09 -99.99 -999 -999 -999 -99.9 -99.9 -999.9 -9.9 -9.999 -99.9 -99.99 -9.99
2019/01/23 05:00 EST    3.98 -99.99 -999 -999 -999 -99.9 -99.9 -999.9 -9.9 -9.999 -99.9 -99.99 -9.99
2019/01/23 05:06 EST    3.87 -99.99 -999 -999 -999 -99.9 -99.9 -999.9 -9.9 -9.999 -99.9 -99.99 -9.99
2019/01/23 05:12 EST    3.75 -99.99 -999 -999 -999 -99.9 -99.9 -999.9 -9.9 -9.999 -99.9 -99.99 -9.99
2019/01/23 05:18 EST    3.64 -99.99 -999 -999 -999 -99.9 -99.9 -999.9 -9.9 -9.999 -99.9 -99.99 -9.99
2019/01/23 05:24 EST    3.53 -99.99 -999 -999 -999 -99.9 -99.9 -999.9 -9.9 -9.999 -99.9 -99.99 -9.99
2019/01/23 05:30 EST    3.42 -99.99 -999 -999 -999 -99.9 -99.9 -999.9 -9.9 -9.999 -99.9 -99.99 -9.99
2019/01/23 05:36 EST    3.31 -99.99 -999 -999 -999 -99.9 -99.9 -999.9 -9.9 -9.999 -99.9 -99.99 -9.99
2019/01/23 05:42 EST    3.20 -99.99 -999 -999 -999 -99.9 -99.9 -999.9 -9.9 -9.999 -99.9 -99.99 -9.99
2019/01/23 05:48 EST    3.09 -99.99 -999 -999 -999 -99.9 -99.9 -999.9 -9.9 -9.999 -99.9 -99.99 -9.99
2019/01/23 05:54 EST    2.97 -99.99 -999 -999 -999 -99.9 -99.9 -999.9 -9.9 -9.999 -99.9 -99.99 -9.99
2019/01/23 06:00 EST    2.86 -99.99 -999 -999 -999 -99.9 -99.9 -999.9 -9.9 -9.999 -99.9 -99.99 -9.99
2019/01/23 06:06 EST    2.75 -99.99 -999 -999 -999 -99.9 -99.9 -999.9 -9.9 -9.999 -99.9 -99.99 -9.99
2019/01/23 06:12 EST    2.63 -99.99 -999 -999 -999 -99.9 -99.9 -999.9 -9.9 -9.999 -99.9 -99.99 -9.99
2019/01/23 06:18 EST    2.52 -99.99 -999 -999 -999 -99.9 -99.9 -999.9 -9.9 -9.999 -99.9 -99.99 -9.99
2019/01/23 06:24 EST    2.41 -99.99 -999 -999 -999 -99.9 -99.9 -999.9 -9.9 -9.999 -99.9 -99.99 -9.99
2019/01/23 06:30 EST    2.29 -99.99 -999 -999 -999 -99.9 -99.9 -999.9 -9.9 -9.999 -99.9 -99.99 -9.99
2019/01/23 06:36 EST    2.18 -99.99 -999 -999 -999 -99.9 -99.9 -999.9 -9.9 -9.999 -99.9 -99.99 -9.99
2019/01/23 06:42 EST    2.06 -99.99 -999 -999 -999 -99.9 -99.9 -999.9 -9.9 -9.999 -99.9 -99.99 -9.99
2019/01/23 06:48 EST    1.95 -99.99 -999 -999 -999 -99.9 -99.9 -999.9 -9.9 -9.999 -99.9 -99.99 -9.99

Revised: 08/08/2018
NOAA / National Ocean Service
Web site owner: Center for Operational Oceanographic Products and Services